Caspar, CA (95420)

3:23 AM PDT on May 26, 2015 (GMT -0700)
Caspar Headlands | | Change Station
CLOSE
Current Station
Personal Weather Station
Location: Caspar, CA
Elevation: 69 ft
Nearby Weather Stations

Elev 69 ft 39.37 °N, 123.82 °W | Updated 3 minutes ago

Overcast
Overcast
48.7 °F
Feels Like 49 °F
N
2.0
Wind Variable Wind from ESE
Gusts 3.0 mph

Today
High -- | Low -- °F
--% Chance of Precip.
Yesterday
High -- | Low -- °F
Precip. -- in
5:53 AM 8:31 PM
First Quarter, 57% visible
Pressure 29.94 in
Visibility 10.0 miles
Clouds Overcast 700 ft
Windchill 49 °F
Dew Point 48 °F
Humidity 99%
Rainfall 0.00 in
Snow Depth Not available.
UV 0 out of 12
Pollen 7.10 out of 12
Air Quality Not available.
Flu Activity Sporadic
METAR KUKI 260956Z AUTO 17004KT 10SM OVC007 11/09 A2995 RMK AO2 CIG 007V010 SLP136 T01110089

More Conditions Fewer Conditions

Pressure 29.94 in
Visibility 10.0 miles
Clouds Overcast 700 ft
Windchill 49 °F
Dew Point 48 °F
Humidity 99%
Rainfall 0.00 in
Snow Depth Not available.
UV 0 out of 12
Pollen 7.10 out of 12
Air Quality Not available.
Flu Activity Sporadic
METAR KUKI 260956Z AUTO 17004KT 10SM OVC007 11/09 A2995 RMK AO2 CIG 007V010 SLP136 T01110089

More Conditions Fewer Conditions

10-Day Weather Forecast

Almanac

Astronomy

May. 26, 2015 Rise Set
Actual Time
Civil Twilight
Nautical Twilight
Astronomical Twilight
Moon
Length of Visible Light
Length of Day
Tomorrow will be .
, % of the Moon is Illuminated

Today's Extremes

State Highs State Lows

Community

WunderPhotos

Upload Photos

1,824,305 photos uploaded!

WunderBlogs® & News

Nearby

Air Quality

  Air Quality AQ Index Pollutant
Not available.

Snow Depth

Station Depth Elevation

Earthquake Activity

City Distance Mag. Time & Date
Minimum magnitude displayed is 2.5.

Coastal Water Temperatures

Place Temperature

Stations

Nearby Weather Stations

Station Location Temp. Windchill Dew Point Humidity Wind Precip. Elev Updated Type